createdAt,value
2023-01-28T00:00:48.168Z,102894.31
2023-01-28T00:03:16.256Z,102885.66
2023-01-28T00:05:43.420Z,102885.38
2023-01-28T00:08:10.553Z,102888.47
2023-01-28T00:10:39.963Z,102903.16
2023-01-28T00:13:07.619Z,102899.59
2023-01-28T00:15:34.602Z,102894.31
2023-01-28T00:18:01.612Z,102895.47
2023-01-28T00:20:28.593Z,102901.19
2023-01-28T00:22:55.375Z,102892.28
2023-01-28T00:25:22.144Z,102884.19
2023-01-28T00:27:50.027Z,102884.28
2023-01-28T00:30:17.276Z,102889.09
2023-01-28T00:32:44.659Z,102891.13
2023-01-28T00:35:12.586Z,102896.22
2023-01-28T00:37:39.799Z,102884.84
2023-01-28T00:40:07.472Z,102884.91
2023-01-28T00:42:34.398Z,102886.34
2023-01-28T00:45:02.071Z,102884.72
2023-01-28T00:47:29.270Z,102891.25
2023-01-28T00:49:56.282Z,102881.22
2023-01-28T00:52:23.056Z,102879.03
2023-01-28T00:54:49.919Z,102881.31
2023-01-28T00:57:17.037Z,102878.81
2023-01-28T00:59:44.024Z,102874.13
2023-01-28T01:02:14.067Z,102881.16
2023-01-28T01:04:40.965Z,102877.84
2023-01-28T01:07:08.141Z,102875.34
2023-01-28T01:09:35.071Z,102877.63
2023-01-28T01:12:01.985Z,102877.94
2023-01-28T01:14:28.833Z,102886.97
2023-01-28T01:16:55.588Z,102874.63
2023-01-28T01:19:22.446Z,102884.25
2023-01-28T01:21:50.986Z,102875.56
2023-01-28T01:24:18.276Z,102878.38
2023-01-28T01:26:45.219Z,102883.69
2023-01-28T01:29:14.581Z,102883.44
2023-01-28T01:31:41.613Z,102880.34
2023-01-28T01:34:09.868Z,102877.28
2023-01-28T01:36:36.888Z,102875.59
2023-01-28T01:39:04.041Z,102882.06
2023-01-28T01:41:32.073Z,102882.66
2023-01-28T01:44:00.199Z,102887.44
2023-01-28T01:46:28.201Z,102888.28
2023-01-28T01:48:57.697Z,102879.00
2023-01-28T01:51:29.149Z,102878.41
2023-01-28T01:53:57.963Z,102876.44
2023-01-28T01:56:28.064Z,102875.59
2023-01-28T01:58:56.008Z,102883.16
2023-01-28T02:01:24.607Z,102875.28
2023-01-28T02:03:51.650Z,102888.47
2023-01-28T02:06:18.406Z,102881.19
2023-01-28T02:08:45.637Z,102886.44
2023-01-28T02:11:15.132Z,102883.91
2023-01-28T02:13:44.943Z,102887.84
2023-01-28T02:16:13.216Z,102882.75
2023-01-28T02:18:40.117Z,102892.28
2023-01-28T02:21:16.647Z,102892.53
2023-01-28T02:23:52.556Z,102891.97
2023-01-28T02:26:19.599Z,102898.34
2023-01-28T02:28:53.109Z,102882.63
2023-01-28T02:31:29.966Z,102890.75
2023-01-28T02:34:01.372Z,102894.41
2023-01-28T02:36:33.837Z,102887.13
2023-01-28T02:39:07.799Z,102884.31
2023-01-28T02:41:38.466Z,102880.31
2023-01-28T02:44:05.578Z,102888.22
2023-01-28T02:46:42.686Z,102892.13
2023-01-28T02:49:15.626Z,102886.78
2023-01-28T02:51:52.187Z,102891.81
2023-01-28T02:54:20.541Z,102894.88
2023-01-28T02:56:51.978Z,102899.38
2023-01-28T02:59:31.773Z,102903.84
2023-01-28T03:02:08.816Z,102908.84
2023-01-28T03:04:39.530Z,102911.41
2023-01-28T03:07:07.978Z,102909.13
2023-01-28T03:09:35.905Z,102910.22
2023-01-28T03:12:12.486Z,102911.56
2023-01-28T03:14:49.911Z,102913.81
2023-01-28T03:17:29.086Z,102915.44
2023-01-28T03:20:05.567Z,102919.09
2023-01-28T03:22:44.915Z,102907.78
2023-01-28T03:25:22.862Z,102906.06
2023-01-28T03:28:04.395Z,102913.03
2023-01-28T03:30:48.705Z,102923.69
2023-01-28T03:33:26.433Z,102924.19
2023-01-28T03:36:02.949Z,102925.56
2023-01-28T03:38:42.355Z,102915.94
2023-01-28T03:41:11.260Z,102920.72
2023-01-28T03:43:38.226Z,102919.53
2023-01-28T03:46:06.666Z,102920.63
2023-01-28T03:48:33.680Z,102934.56
2023-01-28T03:51:01.651Z,102928.09
2023-01-28T03:53:28.705Z,102916.56
2023-01-28T03:55:56.945Z,102925.50
2023-01-28T03:58:27.648Z,102927.78
2023-01-28T04:00:54.540Z,102930.25
2023-01-28T04:03:22.183Z,102928.31
2023-01-28T04:05:58.716Z,102936.13
2023-01-28T04:08:25.823Z,102929.94
2023-01-28T04:10:52.705Z,102931.28
2023-01-28T04:13:19.516Z,102929.31
2023-01-28T04:15:46.300Z,102932.41
2023-01-28T04:18:13.676Z,102932.88
2023-01-28T04:20:40.869Z,102941.63
2023-01-28T04:23:09.061Z,102931.19
2023-01-28T04:25:37.014Z,102930.38
2023-01-28T04:28:03.863Z,102926.69
2023-01-28T04:30:30.778Z,102930.84
2023-01-28T04:32:57.892Z,102930.28
2023-01-28T04:35:24.786Z,102945.63
2023-01-28T04:37:51.776Z,102937.50
2023-01-28T04:40:19.079Z,102940.03
2023-01-28T04:42:53.164Z,102937.75
2023-01-28T04:45:19.862Z,102932.66
2023-01-28T04:47:46.986Z,102927.81
2023-01-28T04:50:13.929Z,102928.91
2023-01-28T04:52:41.061Z,102921.34
2023-01-28T04:55:08.119Z,102923.53
2023-01-28T04:57:34.852Z,102932.19
2023-01-28T05:00:01.787Z,102930.75
2023-01-28T05:02:28.720Z,102929.91
2023-01-28T05:04:55.461Z,102921.16
2023-01-28T05:07:22.231Z,102918.03
2023-01-28T05:09:49.296Z,102906.81
2023-01-28T05:12:15.964Z,102909.84
2023-01-28T05:14:42.777Z,102919.13
2023-01-28T05:17:09.830Z,102907.06
2023-01-28T05:19:36.629Z,102919.84
2023-01-28T05:22:03.355Z,102915.97
2023-01-28T05:24:30.431Z,102920.09
2023-01-28T05:26:57.506Z,102909.41
2023-01-28T05:29:24.266Z,102910.72
2023-01-28T05:31:51.010Z,102914.38
2023-01-28T05:34:17.851Z,102920.00
2023-01-28T05:36:44.830Z,102923.06
2023-01-28T05:39:11.706Z,102929.66
2023-01-28T05:41:38.388Z,102930.75
2023-01-28T05:44:05.383Z,102919.56
2023-01-28T05:46:32.131Z,102908.84
2023-01-28T05:48:58.984Z,102909.09
2023-01-28T05:51:25.927Z,102909.38
2023-01-28T05:53:52.848Z,102925.34
2023-01-28T05:56:19.741Z,102919.72
2023-01-28T05:58:46.611Z,102921.34
2023-01-28T06:01:13.381Z,102930.31
2023-01-28T06:03:40.140Z,102930.22
2023-01-28T06:06:07.105Z,102940.56
2023-01-28T06:08:33.921Z,102944.22
2023-01-28T06:11:00.653Z,102945.84
2023-01-28T06:13:27.631Z,102945.25
2023-01-28T06:15:54.379Z,102938.53
2023-01-28T06:18:21.192Z,102939.88
2023-01-28T06:20:49.496Z,102924.19
2023-01-28T06:23:16.334Z,102940.13
2023-01-28T06:25:43.288Z,102942.94
2023-01-28T06:28:10.228Z,102944.03
2023-01-28T06:30:37.116Z,102934.53
2023-01-28T06:33:03.851Z,102946.25
2023-01-28T06:35:30.606Z,102947.34
2023-01-28T06:37:57.634Z,102951.22
2023-01-28T06:40:25.278Z,102955.16
2023-01-28T06:42:52.420Z,102948.09
2023-01-28T06:45:19.266Z,102949.69
2023-01-28T06:47:45.975Z,102949.69
2023-01-28T06:50:13.089Z,102945.19
2023-01-28T06:52:40.411Z,102953.00
2023-01-28T06:55:08.062Z,102951.63
2023-01-28T06:57:34.926Z,102955.28
2023-01-28T07:00:02.288Z,102957.84
2023-01-28T07:02:29.081Z,102960.16
2023-01-28T07:04:56.318Z,102952.09
2023-01-28T07:07:23.036Z,102960.84
2023-01-28T07:09:49.787Z,102960.94
2023-01-28T07:12:16.599Z,102964.94
2023-01-28T07:14:43.458Z,102967.00
2023-01-28T07:17:10.457Z,102965.16
2023-01-28T07:19:37.352Z,102957.69
2023-01-28T07:22:04.159Z,102962.31
2023-01-28T07:24:31.397Z,102967.16
2023-01-28T07:26:58.276Z,102967.28
2023-01-28T07:29:25.039Z,102964.56
2023-01-28T07:31:51.834Z,102961.84
2023-01-28T07:34:18.630Z,102952.69
2023-01-28T07:36:45.382Z,102964.00
2023-01-28T07:39:12.192Z,102952.88
2023-01-28T07:41:39.003Z,102947.34
2023-01-28T07:44:06.451Z,102960.59
2023-01-28T07:46:33.339Z,102952.28
2023-01-28T07:49:00.210Z,102954.31
2023-01-28T07:51:27.210Z,102961.13
2023-01-28T07:53:54.121Z,102962.06
2023-01-28T07:56:20.897Z,102966.06
2023-01-28T07:58:50.166Z,102970.03
2023-01-28T08:01:17.131Z,102973.78
2023-01-28T08:03:44.127Z,102973.88
2023-01-28T08:06:12.120Z,102971.16
2023-01-28T08:08:39.051Z,102965.88
2023-01-28T08:11:09.321Z,102971.31
2023-01-28T08:13:36.433Z,102953.97
2023-01-28T08:16:03.487Z,102957.97
2023-01-28T08:18:30.732Z,102955.22
2023-01-28T08:20:58.796Z,102961.16
2023-01-28T08:23:27.479Z,102966.00
2023-01-28T08:25:54.721Z,102965.22
2023-01-28T08:28:22.189Z,102962.75
2023-01-28T08:30:49.364Z,102965.63
2023-01-28T08:33:17.293Z,102960.63
2023-01-28T08:35:44.540Z,102964.84
2023-01-28T08:38:12.832Z,102963.47
2023-01-28T08:40:39.812Z,102972.25
2023-01-28T08:43:06.894Z,102968.56
2023-01-28T08:45:33.952Z,102971.72
2023-01-28T08:48:02.438Z,102981.84
2023-01-28T08:50:33.016Z,102973.13
2023-01-28T08:53:01.652Z,102977.91
2023-01-28T08:55:29.322Z,102975.69
2023-01-28T08:57:58.570Z,102983.25
2023-01-28T09:00:26.000Z,102981.56
2023-01-28T09:02:53.579Z,102981.56
2023-01-28T09:05:21.202Z,102991.13
2023-01-28T09:07:49.236Z,102992.22
2023-01-28T09:10:17.167Z,102987.19
2023-01-28T09:12:44.838Z,102987.47
2023-01-28T09:15:12.175Z,102989.66
2023-01-28T09:17:39.658Z,102994.97
2023-01-28T09:20:07.542Z,103000.50
2023-01-28T09:22:34.457Z,103001.78
2023-01-28T09:25:01.611Z,103004.16
2023-01-28T09:27:28.741Z,103003.28
2023-01-28T09:29:55.832Z,103007.81
2023-01-28T09:32:23.950Z,103017.09
2023-01-28T09:34:51.087Z,103008.28
2023-01-28T09:37:18.917Z,103005.41
2023-01-28T09:39:46.069Z,103018.63
2023-01-28T09:42:22.509Z,103010.44
2023-01-28T09:44:56.685Z,103002.78
2023-01-28T09:47:28.580Z,103007.56
2023-01-28T09:49:59.018Z,103017.56
2023-01-28T09:52:29.382Z,103008.53
2023-01-28T09:55:05.014Z,103012.97
2023-01-28T09:57:37.974Z,103004.56
2023-01-28T10:00:15.812Z,103003.13
2023-01-28T10:02:53.971Z,103006.69
2023-01-28T10:05:27.718Z,102995.47
2023-01-28T10:08:04.429Z,102993.16
2023-01-28T10:10:41.088Z,102999.38
2023-01-28T10:13:21.991Z,103002.09
2023-01-28T10:15:59.052Z,103000.28
2023-01-28T10:18:33.111Z,102993.25
2023-01-28T10:21:09.578Z,102994.63
2023-01-28T10:23:41.582Z,103002.44
2023-01-28T10:26:17.390Z,103006.63
2023-01-28T10:28:45.137Z,103007.72
2023-01-28T10:31:13.630Z,103003.19
2023-01-28T10:33:41.576Z,103003.44
2023-01-28T10:36:09.986Z,103000.53
2023-01-28T10:38:39.090Z,103004.47
2023-01-28T10:41:08.864Z,102997.69
2023-01-28T10:43:38.132Z,102981.34
2023-01-28T10:46:14.882Z,102966.72
2023-01-28T10:48:46.496Z,102972.25
2023-01-28T10:51:15.514Z,102981.75
2023-01-28T10:53:43.898Z,102971.41
2023-01-28T10:56:14.868Z,102959.84
2023-01-28T10:58:51.771Z,102948.53
2023-01-28T11:01:18.677Z,102941.06
2023-01-28T11:03:54.707Z,102932.91
2023-01-28T11:06:25.587Z,102936.28
2023-01-28T11:08:52.708Z,102929.09
2023-01-28T11:11:24.981Z,102914.53
2023-01-28T11:13:53.840Z,102909.25
2023-01-28T11:16:20.918Z,102898.38
2023-01-28T11:18:51.826Z,102896.19
2023-01-28T11:21:20.794Z,102895.41
2023-01-28T11:23:51.276Z,102889.03
2023-01-28T11:26:21.942Z,102901.44
2023-01-28T11:28:49.519Z,102912.97
2023-01-28T11:31:17.681Z,102904.06
2023-01-28T11:33:54.953Z,102907.69
2023-01-28T11:36:23.636Z,102906.59
2023-01-28T11:38:56.907Z,102915.34
2023-01-28T11:41:27.769Z,102919.63
2023-01-28T11:43:55.781Z,102915.19
2023-01-28T11:46:32.663Z,102905.38
2023-01-28T11:49:09.458Z,102917.81
2023-01-28T11:51:36.574Z,102907.41
2023-01-28T11:54:10.172Z,102920.66
2023-01-28T11:56:44.709Z,102921.91
2023-01-28T11:59:15.556Z,102921.38
2023-01-28T12:01:42.623Z,102925.38
2023-01-28T12:04:12.745Z,102929.34
2023-01-28T12:06:40.683Z,102938.09
2023-01-28T12:09:11.183Z,102946.28
2023-01-28T12:11:56.244Z,102940.97
2023-01-28T12:14:30.763Z,102939.34
2023-01-28T12:17:08.233Z,102938.25
2023-01-28T12:19:44.411Z,102950.16
2023-01-28T12:22:12.357Z,102944.88
2023-01-28T12:24:39.489Z,102929.72
2023-01-28T12:27:17.201Z,102925.78
2023-01-28T12:29:51.774Z,102919.38
2023-01-28T12:32:21.799Z,102910.69
2023-01-28T12:34:56.383Z,102920.53
2023-01-28T12:37:25.750Z,102917.22
2023-01-28T12:39:52.897Z,102921.19
2023-01-28T12:42:28.110Z,102915.91
2023-01-28T12:44:59.946Z,102919.88
2023-01-28T12:47:29.468Z,102913.16
2023-01-28T12:49:58.702Z,102917.38
2023-01-28T12:52:29.722Z,102907.91
2023-01-28T12:54:59.637Z,102904.56
2023-01-28T12:57:28.464Z,102900.66
2023-01-28T13:00:15.389Z,102898.44
2023-01-28T13:02:45.855Z,102886.41
2023-01-28T13:05:13.974Z,102884.44
2023-01-28T13:07:46.128Z,102873.53
2023-01-28T13:10:22.458Z,102869.31
2023-01-28T13:12:49.848Z,102881.16
2023-01-28T13:15:18.672Z,102884.28
2023-01-28T13:18:00.179Z,102875.59
2023-01-28T13:20:37.308Z,102882.63
2023-01-28T13:23:07.091Z,102878.72
2023-01-28T13:25:35.426Z,102867.22
2023-01-28T13:28:04.452Z,102859.94
2023-01-28T13:30:33.922Z,102858.81
2023-01-28T13:33:03.631Z,102863.06
2023-01-28T13:35:32.626Z,102867.88
2023-01-28T13:37:59.827Z,102864.81
2023-01-28T13:40:29.020Z,102859.50
2023-01-28T13:43:01.318Z,102856.13
2023-01-28T13:45:28.316Z,102852.78
2023-01-28T13:48:04.499Z,102849.44
2023-01-28T13:50:40.411Z,102852.56
2023-01-28T13:53:20.088Z,102850.59
2023-01-28T13:55:48.292Z,102855.41
2023-01-28T13:58:25.837Z,102843.91
2023-01-28T14:01:02.556Z,102845.59
2023-01-28T14:03:38.627Z,102848.16
2023-01-28T14:06:14.594Z,102838.03
2023-01-28T14:08:42.704Z,102847.31
2023-01-28T14:11:18.724Z,102844.50
2023-01-28T14:13:55.909Z,102842.78
2023-01-28T14:16:32.389Z,102838.28
2023-01-28T14:19:00.888Z,102836.88
2023-01-28T14:21:29.059Z,102831.25
2023-01-28T14:23:57.097Z,102829.53
2023-01-28T14:26:33.042Z,102827.56
2023-01-28T14:29:09.688Z,102839.13
2023-01-28T14:31:38.796Z,102832.38
2023-01-28T14:34:05.788Z,102841.69
2023-01-28T14:36:36.278Z,102834.66
2023-01-28T14:39:03.048Z,102829.88
2023-01-28T14:41:30.468Z,102831.59
2023-01-28T14:43:58.165Z,102835.84
2023-01-28T14:46:25.151Z,102839.47
2023-01-28T14:49:01.358Z,102854.13
2023-01-28T14:51:37.509Z,102854.97
2023-01-28T14:54:04.563Z,102860.34
2023-01-28T14:56:33.159Z,102868.50
2023-01-28T14:59:03.288Z,102873.00
2023-01-28T15:01:31.492Z,102876.13
2023-01-28T15:03:58.422Z,102884.09
2023-01-28T15:06:26.490Z,102885.50
2023-01-28T15:08:53.748Z,102882.69
2023-01-28T15:11:23.309Z,102880.47
2023-01-28T15:13:52.827Z,102884.94
2023-01-28T15:16:21.922Z,102884.69
2023-01-28T15:18:49.800Z,102886.91
2023-01-28T15:21:21.417Z,102884.09
2023-01-28T15:23:50.704Z,102878.75
2023-01-28T15:26:20.153Z,102876.78
2023-01-28T15:28:47.767Z,102880.97
2023-01-28T15:31:24.742Z,102870.84
2023-01-28T15:34:01.639Z,102876.47
2023-01-28T15:36:28.790Z,102880.66
2023-01-28T15:38:56.308Z,102876.41
2023-01-28T15:41:27.093Z,102873.28
2023-01-28T15:43:54.042Z,102874.97
2023-01-28T15:46:21.088Z,102867.69
2023-01-28T15:48:53.848Z,102870.50
2023-01-28T15:51:23.672Z,102860.09
2023-01-28T15:53:51.656Z,102847.69
2023-01-28T15:56:24.195Z,102854.44
2023-01-28T15:58:51.103Z,102844.28
2023-01-28T16:01:19.301Z,102853.88
2023-01-28T16:03:47.536Z,102850.19
2023-01-28T16:06:23.569Z,102853.28
2023-01-28T16:08:51.585Z,102853.53
2023-01-28T16:11:22.523Z,102851.00
2023-01-28T16:13:49.362Z,102850.97
2023-01-28T16:16:16.294Z,102844.50
2023-01-28T16:18:47.728Z,102842.28
2023-01-28T16:21:20.558Z,102841.94
2023-01-28T16:23:51.175Z,102847.06
2023-01-28T16:26:23.342Z,102842.53
2023-01-28T16:28:50.381Z,102850.13
2023-01-28T16:31:17.827Z,102850.13
2023-01-28T16:33:45.172Z,102863.09
2023-01-28T16:36:13.780Z,102857.75
2023-01-28T16:38:41.778Z,102872.09
2023-01-28T16:41:18.402Z,102865.78
2023-01-28T16:43:45.476Z,102871.47
2023-01-28T16:46:12.970Z,102865.91
2023-01-28T16:48:40.097Z,102865.09
2023-01-28T16:51:08.553Z,102861.16
2023-01-28T16:53:35.512Z,102858.06
2023-01-28T16:56:03.717Z,102864.53
2023-01-28T16:58:31.351Z,102865.38
2023-01-28T17:00:59.814Z,102871.00
2023-01-28T17:03:27.544Z,102880.31
2023-01-28T17:05:56.772Z,102890.19
2023-01-28T17:08:23.847Z,102887.13
2023-01-28T17:10:52.531Z,102886.91
2023-01-28T17:13:19.319Z,102898.75
2023-01-28T17:15:46.276Z,102902.72
2023-01-28T17:18:13.467Z,102895.38
2023-01-28T17:20:41.629Z,102890.66
2023-01-28T17:23:09.477Z,102892.91
2023-01-28T17:25:37.369Z,102891.78
2023-01-28T17:28:04.438Z,102895.47
2023-01-28T17:30:31.290Z,102895.19
2023-01-28T17:32:58.336Z,102894.09
2023-01-28T17:35:25.324Z,102902.53
2023-01-28T17:37:53.003Z,102898.88
2023-01-28T17:40:20.294Z,102901.69
2023-01-28T17:42:47.182Z,102903.06
2023-01-28T17:45:14.570Z,102892.09
2023-01-28T17:47:41.710Z,102909.81
2023-01-28T17:50:09.562Z,102901.66
2023-01-28T17:52:36.272Z,102898.25
2023-01-28T17:55:03.013Z,102912.31
2023-01-28T17:57:29.918Z,102913.97
2023-01-28T17:59:56.912Z,102907.50
2023-01-28T18:02:23.778Z,102909.75
2023-01-28T18:04:50.652Z,102911.13
2023-01-28T18:07:17.508Z,102908.59
2023-01-28T18:09:46.156Z,102908.28
2023-01-28T18:12:14.909Z,102899.28
2023-01-28T18:14:41.986Z,102899.50
2023-01-28T18:17:08.860Z,102908.50
2023-01-28T18:19:35.857Z,102909.84
2023-01-28T18:22:02.776Z,102912.97
2023-01-28T18:24:30.279Z,102909.56
2023-01-28T18:27:00.414Z,102913.78
2023-01-28T18:29:28.004Z,102909.50
2023-01-28T18:31:55.537Z,102913.72
2023-01-28T18:34:23.757Z,102910.63
2023-01-28T18:36:50.749Z,102908.06
2023-01-28T18:39:18.283Z,102911.13
2023-01-28T18:41:45.005Z,102901.84
2023-01-28T18:44:13.013Z,102911.94
2023-01-28T18:46:39.853Z,102912.75
2023-01-28T18:49:07.225Z,102907.09
2023-01-28T18:51:34.033Z,102909.63
2023-01-28T18:54:03.122Z,102907.06
2023-01-28T18:56:30.696Z,102912.38
2023-01-28T18:58:58.214Z,102912.94
2023-01-28T19:01:25.287Z,102905.59
2023-01-28T19:03:53.363Z,102906.16
2023-01-28T19:06:20.483Z,102906.66
2023-01-28T19:08:52.405Z,102909.16
2023-01-28T19:11:19.290Z,102909.97
2023-01-28T19:13:46.251Z,102905.97
2023-01-28T19:16:13.082Z,102901.16
2023-01-28T19:18:39.917Z,102904.78
2023-01-28T19:21:07.076Z,102904.72
2023-01-28T19:23:48.142Z,102895.09
2023-01-28T19:26:21.477Z,102894.22
2023-01-28T19:28:49.659Z,102881.81
2023-01-28T19:31:18.736Z,102885.44
2023-01-28T19:33:46.308Z,102885.97
2023-01-28T19:36:13.975Z,102882.56
2023-01-28T19:38:41.410Z,102878.03
2023-01-28T19:41:08.540Z,102876.31
2023-01-28T19:43:35.649Z,102875.16
2023-01-28T19:46:03.853Z,102873.13
2023-01-28T19:48:31.470Z,102879.25
2023-01-28T19:50:58.821Z,102886.25
2023-01-28T19:53:25.552Z,102877.84
2023-01-28T19:55:52.449Z,102878.09
2023-01-28T19:58:19.355Z,102881.44
2023-01-28T20:00:46.105Z,102880.56
2023-01-28T20:03:13.038Z,102876.59
2023-01-28T20:05:40.053Z,102887.22
2023-01-28T20:08:07.058Z,102891.09
2023-01-28T20:10:33.988Z,102889.41
2023-01-28T20:13:01.057Z,102893.00
2023-01-28T20:15:27.906Z,102896.59
2023-01-28T20:17:54.759Z,102894.34
2023-01-28T20:20:21.690Z,102898.53
2023-01-28T20:22:48.417Z,102890.91
2023-01-28T20:25:16.812Z,102904.41
2023-01-28T20:27:43.913Z,102899.31
2023-01-28T20:30:11.574Z,102895.91
2023-01-28T20:32:38.450Z,102895.00
2023-01-28T20:35:06.734Z,102894.16
2023-01-28T20:37:33.568Z,102896.38
2023-01-28T20:40:00.672Z,102894.91
2023-01-28T20:42:27.395Z,102907.25
2023-01-28T20:44:54.258Z,102913.09
2023-01-28T20:47:20.969Z,102913.88
2023-01-28T20:49:47.949Z,102913.56
2023-01-28T20:52:15.100Z,102905.97
2023-01-28T20:54:42.170Z,102906.22
2023-01-28T20:57:08.866Z,102908.19
2023-01-28T20:59:35.765Z,102913.47
2023-01-28T21:02:02.630Z,102908.63
2023-01-28T21:04:29.410Z,102911.44
2023-01-28T21:06:56.153Z,102896.56
2023-01-28T21:09:25.908Z,102912.22
2023-01-28T21:11:52.729Z,102899.88
2023-01-28T21:14:19.672Z,102893.44
2023-01-28T21:16:47.530Z,102905.09
2023-01-28T21:19:14.453Z,102900.78
2023-01-28T21:21:43.174Z,102893.78
2023-01-28T21:24:13.179Z,102887.84
2023-01-28T21:26:40.332Z,102891.50
2023-01-28T21:29:07.458Z,102888.69
2023-01-28T21:31:34.238Z,102883.25
2023-01-28T21:34:01.889Z,102885.19
2023-01-28T21:36:31.993Z,102889.38
2023-01-28T21:39:00.719Z,102889.38
2023-01-28T21:41:27.877Z,102891.09
2023-01-28T21:43:55.236Z,102896.00
2023-01-28T21:46:22.758Z,102900.75
2023-01-28T21:48:49.806Z,102896.88
2023-01-28T21:51:26.253Z,102894.31
2023-01-28T21:53:53.103Z,102892.25
2023-01-28T21:56:19.849Z,102889.47
2023-01-28T21:58:56.383Z,102893.97
2023-01-28T22:01:23.677Z,102896.44
2023-01-28T22:03:50.557Z,102888.59
2023-01-28T22:06:17.581Z,102889.13
2023-01-28T22:08:44.808Z,102887.41
2023-01-28T22:11:11.619Z,102891.06
2023-01-28T22:13:38.669Z,102884.63
2023-01-28T22:16:05.886Z,102889.66
2023-01-28T22:18:33.181Z,102884.91
2023-01-28T22:21:00.908Z,102888.88
2023-01-28T22:23:27.989Z,102892.53
2023-01-28T22:25:55.476Z,102891.41
2023-01-28T22:28:22.618Z,102891.25
2023-01-28T22:30:49.473Z,102883.16
2023-01-28T22:33:16.485Z,102876.53
2023-01-28T22:35:43.460Z,102882.81
2023-01-28T22:38:10.783Z,102884.84
2023-01-28T22:40:37.617Z,102880.16
2023-01-28T22:43:04.491Z,102876.59
2023-01-28T22:45:31.389Z,102873.84
2023-01-28T22:47:58.304Z,102881.50
2023-01-28T22:50:25.145Z,102895.59
2023-01-28T22:52:53.772Z,102892.88
2023-01-28T22:55:20.842Z,102905.06
2023-01-28T22:57:47.623Z,102921.13
2023-01-28T23:00:15.728Z,102899.00
2023-01-28T23:02:43.285Z,102883.06
2023-01-28T23:05:10.772Z,102877.50
2023-01-28T23:07:37.967Z,102864.66
2023-01-28T23:10:05.468Z,102865.53
2023-01-28T23:12:32.363Z,102859.44
2023-01-28T23:15:09.343Z,102849.06
2023-01-28T23:17:45.258Z,102848.28
2023-01-28T23:20:21.598Z,102839.06
2023-01-28T23:22:58.223Z,102840.22
2023-01-28T23:25:28.301Z,102838.03
2023-01-28T23:27:55.228Z,102842.25
2023-01-28T23:30:25.695Z,102835.28
2023-01-28T23:32:56.075Z,102820.69
2023-01-28T23:35:26.175Z,102825.50
2023-01-28T23:37:52.909Z,102827.53
2023-01-28T23:40:21.307Z,102821.38
2023-01-28T23:42:48.629Z,102815.22
2023-01-28T23:45:15.683Z,102820.03
2023-01-28T23:47:42.562Z,102818.69
2023-01-28T23:50:09.975Z,102819.84
2023-01-28T23:52:36.842Z,102812.84
2023-01-28T23:55:04.713Z,102812.91
2023-01-28T23:57:31.716Z,102808.69
2023-01-28T23:59:58.572Z,102809.00
